• Join FlightAware (Why Join?)
  • Login
  • US Flag 
09:39PM EDT


 

Airport Tracker/Info


-or-


 

Live Flight TrackerFlight Track Log ✈ N214GF ✈ 15-May-2013 ✈ KMSN - KPWK

Flight Track Log - Related Links

Times and Time Zones

All times are in EDT time to prevent confusion due to time zone crossing. See the N214GF flight status page for this flight to view local times or setup timezone preferences in your user account.

Time Position Orientation Groundspeed Altitude Reporting Facility
EDT Latitude Longitude Course Direction KTS MPH feet Rate Location/Type
09:19PM 43.0869 -89.2339 142° Southeast 148 170 3,900  Level Chicago Center
09:20PM 43.0533 -89.1978 142° Southeast 151 174 4,700 720 Climbing Chicago Center
09:21PM 43.0194 -89.1639 144° Southeast 151 174 5,500 720 Climbing Chicago Center
09:22PM 42.9149 -89.0815 144° Southeast  Level FlightAware Approximate
09:22PM 42.9867 -89.1300 143° Southeast 150 173 6,300  Level Chicago Center
09:23PM 42.8765 -89.0431 144° Southeast  Level FlightAware Approximate
09:23PM 42.9461 -89.0867 142° Southeast 157 181 7,000  Level Chicago Center
09:24PM 42.9058 -89.0450 143° Southeast 177 204 7,000  Level Chicago Center
09:25PM 42.8633 -89.0011 143° Southeast 190 219 7,000  Level Chicago Center
09:26PM 42.8203 -88.9572 143° Southeast 193 222 7,000  Level Chicago Center
09:27PM 42.7792 -88.9150 143° Southeast 188 216 7,000  Level Chicago Center
09:28PM 42.7375 -88.8700 142° Southeast 191 220 7,000  Level Chicago Center
09:29PM 42.6864 -88.8186 144° Southeast 196 226 7,000  Level Chicago Center
09:30PM 42.6428 -88.7711 141° Southeast 200 230 7,000 -180 Level Chicago Center
09:31PM 42.5989 -88.7272 144° Southeast 197 227 6,700 -480 Descending Chicago Center
09:32PM 42.5522 -88.6817 144° Southeast 204 235 6,100 -540 Descending Chicago Center
09:33PM 42.5072 -88.6322 141° Southeast 206 237 5,600 -540 Descending Chicago Center
09:34PM 42.4631 -88.5883 144° Southeast 201 231 5,100 -300 Descending Chicago Center
09:35PM 42.4153 -88.5417 144° Southeast 186 214 5,000 -60 Descending Chicago Center
09:36PM 42.3772 -88.5025 143° Southeast 174 200 5,000 -180 Level Chicago Center
09:37PM 42.3564 -88.4467 117° Southeast 168 193 4,700 -420 Descending Chicago Center
09:38PM 42.3389 -88.3767 109° East 186 214 4,200 -360 Descending Chicago Center
09:39PM 42.3236 -88.3161 109° East 187 215 4,000 -120 Descending Chicago Center
09:40PM 42.3061 -88.2392 107° East 181 208 4,000 -180 Level Chicago Center
09:41PM 42.2914 -88.1808 109° East 172 198 3,700 -360 Descending Chicago Center
09:43PM 42.2756 -88.1175 109° East 175 201 3,300 -420 Descending Chicago Center
09:44PM 42.2583 -88.0542 110° East 180 207 2,900 -420 Descending Chicago Center
09:45PM 42.2422 -87.9906 109° East 180 207 2,500 -300 Descending Chicago Center
09:46PM 42.2086 -87.9531 140° Southeast 173 199 2,400 -420 Descending Chicago Center
09:47PM 42.1689 -87.9308 157° South 169 194 1,700 -660 Descending Chicago Center
09:48PM 42.1394 -87.9156 159° South 147 169 1,100 -600 Descending Chicago Center
09:50PM 42.1143 -87.9015 124° Southeast  Level Estimated